Time;durP1;ratioP1;P1;durP2;ratioP2;P2;SDS_P1;SDS_P2;PMS_P1;PMS_P2;Temp;Humidity;BMP_temperature;BMP_pressure;BME280_temperature;BME280_humidity;BME280_pressure;Samples;Min_cycle;Max_cycle;Signal;HPM_P1;HPM_P2
2022/05/19 00:48:09;;;;;;;;;9.40;9.00;;;;;26.76;49.95;101794.44;5808757;24;45684;-93
2022/05/19 00:54:58;;;;;;;;;6.80;6.80;;;;;26.68;50.67;101835.31;5864654;24;45379;-93
2022/05/19 00:57:38;;;;;;;;;8.40;6.60;;;;;26.66;51.78;101859.16;5861450;24;46777;-94
2022/05/19 01:00:25;;;;;;;;;;;;;;;;;;;;;
2022/05/19 01:03:11;;;;;;;;;10.40;9.00;;;;;26.08;52.10;101770.69;5885309;24;67859;-94
2022/05/19 01:05:48;;;;;;;;;6.40;6.40;;;;;26.12;53.72;101753.84;5865897;24;45675;-93
2022/05/19 01:08:21;;;;;;;;;9.60;8.60;;;;;25.95;52.41;101723.25;5863021;24;46934;-93
2022/05/19 01:11:25;;;;;;;;;9.40;8.80;;;;;26.11;52.89;101760.31;5885876;24;45473;-93
2022/05/19 01:14:13;;;;;;;;;;;;;;;;;;;;;
2022/05/19 01:17:01;;;;;;;;;;;;;;;;;;;;;
2022/05/19 01:20:18;;;;;;;;;9.80;7.00;;;;;26.39;52.43;101831.47;5937474;23;75845;-93
2022/05/19 01:23:33;;;;;;;;;12.60;9.40;;;;;25.62;52.56;101718.03;6107108;23;45393;-93
2022/05/19 01:26:40;;;;;;;;;7.00;6.40;;;;;26.30;52.95;101834.28;6095417;23;45555;-93
2022/05/19 01:29:08;;;;;;;;;10.60;10.00;;;;;25.77;53.06;101775.19;6106950;22;45642;-93
2022/05/19 01:31:58;;;;;;;;;7.00;6.20;;;;;26.23;52.99;101846.88;6162349;22;46942;-93
2022/05/19 01:34:26;;;;;;;;;10.20;9.00;;;;;25.52;53.05;101750.84;6215912;22;45437;-92
2022/05/19 01:36:52;;;;;;;;;8.60;7.60;;;;;25.36;53.15;101703.75;6165035;22;45847;-93
2022/05/19 01:40:24;;;;;;;;;10.00;8.00;;;;;26.12;52.94;101849.00;6165727;22;45468;-93
2022/05/19 01:43:36;;;;;;;;;7.20;7.00;;;;;25.70;53.08;101808.47;6206612;22;46998;-93
2022/05/19 01:46:58;;;;;;;;;10.00;7.20;;;;;26.05;52.87;101869.78;6125458;23;45258;-92
2022/05/19 01:50:03;;;;;;;;;9.00;8.40;;;;;25.50;53.13;101802.66;6215044;22;45230;-92
2022/05/19 02:24:56;;;;;;;;;6.80;6.40;;;;;25.62;53.87;101903.59;6330885;22;44677;-92
2022/05/19 02:27:23;;;;;;;;;11.60;8.60;;;;;25.22;53.98;101793.09;6278551;22;44965;-93
2022/05/19 02:29:51;;;;;;;;;8.80;7.00;;;;;24.96;54.46;101737.16;6277525;22;45254;-92
2022/05/19 02:32:30;;;;;;;;;;;;;;;;;;;;;
2022/05/19 02:34:55;;;;;;;;;10.60;7.80;;;;;24.85;54.15;101708.56;6253675;22;71771;-92
2022/05/19 02:37:21;;;;;;;;;6.50;6.50;;;;;25.12;54.02;101751.75;6251045;22;45480;-92
2022/05/19 02:39:49;;;;;;;;;8.50;7.00;;;;;25.03;54.63;101735.50;6251272;22;45357;-92
2022/05/19 02:42:14;;;;;;;;;8.00;7.60;;;;;25.53;54.38;101779.72;6251596;22;46930;-93
2022/05/19 02:44:43;;;;;;;;;9.25;7.75;;;;;25.15;53.89;101702.53;6270978;22;45231;-93
2022/05/19 02:47:08;;;;;;;;;8.00;8.00;;;;;25.09;54.81;101700.50;6314729;22;45420;-92
2022/05/19 02:49:34;;;;;;;;;8.75;6.50;;;;;24.87;54.74;101683.97;6287855;22;45509;-92
2022/05/19 02:51:59;;;;;;;;;7.25;6.00;;;;;24.88;54.84;101696.50;6314442;22;47219;-91
2022/05/19 02:54:25;;;;;;;;;7.50;7.00;;;;;25.02;55.04;101703.06;6288949;22;45323;-92
2022/05/19 02:56:51;;;;;;;;;9.50;7.00;;;;;24.84;55.51;101673.47;6313765;22;45325;-93
2022/05/19 02:59:26;;;;;;;;;8.00;6.60;;;;;24.96;55.00;101769.72;6315069;22;45569;-93
2022/05/19 03:01:54;;;;;;;;;9.40;6.60;;;;;24.65;54.75;101748.78;6314833;22;47008;-92
2022/05/19 03:04:26;;;;;;;;;8.00;7.00;;;;;24.79;54.50;101775.22;6315055;22;45259;-93
2022/05/19 03:06:54;;;;;;;;;7.20;6.20;;;;;24.52;54.38;101736.63;6290213;22;45365;-93
2022/05/19 03:09:21;;;;;;;;;9.60;6.00;;;;;25.11;54.31;101847.75;6291384;22;45333;-93
2022/05/19 03:11:57;;;;;;;;;4.00;3.40;;;;;24.63;53.50;101791.53;6318049;22;46975;-93
2022/05/19 03:14:34;;;;;;;;;4.00;4.00;;;;;24.59;53.63;101808.13;6326670;22;45521;-93
2022/05/19 03:17:00;;;;;;;;;3.60;3.00;;;;;24.79;53.72;101845.75;6328089;22;45329;-92
2022/05/19 03:19:25;;;;;;;;;6.50;4.00;;;;;24.58;53.73;101833.56;6328632;22;45491;-92
2022/05/19 03:21:57;;;;;;;;;5.00;5.00;;;;;24.75;54.14;101866.13;6329720;22;46543;-93
2022/05/19 03:24:33;;;;;;;;;4.60;4.20;;;;;24.38;54.18;101795.94;6329675;22;45174;-93
2022/05/19 03:27:11;;;;;;;;;4.40;4.40;;;;;25.16;54.03;101932.25;6307066;22;44811;-92
2022/05/19 03:29:42;;;;;;;;;5.20;4.80;;;;;24.35;54.11;101796.31;6335475;22;45409;-92
2022/05/19 03:32:10;;;;;;;;;5.00;4.20;;;;;24.48;54.24;101789.50;6328279;22;46845;-93
2022/05/19 03:34:35;;;;;;;;;6.20;5.00;;;;;24.57;53.83;101788.50;6328431;22;44757;-93
2022/05/19 03:37:12;;;;;;;;;6.75;4.25;;;;;24.34;54.00;101767.50;6328439;22;45353;-92
2022/05/19 03:39:47;;;;;;;;;5.00;4.00;;;;;24.25;54.16;101758.47;6328937;22;45679;-93
2022/05/19 03:42:30;;;;;;;;;4.20;4.20;;;;;24.81;54.14;101887.13;6330148;22;46829;-92
2022/05/19 03:45:16;;;;;;;;;4.80;3.40;;;;;24.53;54.41;101865.78;6310346;22;45308;-94
2022/05/19 03:47:41;;;;;;;;;7.60;4.00;;;;;24.63;54.54;101892.75;6309892;22;45427;-93
2022/05/19 03:50:16;;;;;;;;;9.50;6.00;;;;;24.57;54.19;101874.44;6331584;22;45463;-92
2022/05/19 03:52:51;;;;;;;;;5.80;3.80;;;;;24.65;54.36;101914.25;6335977;22;46877;-93
2022/05/19 03:55:25;;;;;;;;;7.00;6.00;;;;;24.55;54.32;101904.44;6330550;22;44786;-93
2022/05/19 03:57:52;;;;;;;;;5.00;4.00;;;;;24.64;54.69;101918.00;6334557;22;45401;-93
2022/05/19 04:00:18;;;;;;;;;8.20;6.80;;;;;24.54;54.79;101910.03;6303117;22;44792;-93
2022/05/19 04:02:59;;;;;;;;;7.00;5.40;;;;;24.56;54.60;101916.97;6327130;22;47078;-93
2022/05/19 04:05:31;;;;;;;;;7.40;4.80;;;;;24.51;54.90;101913.94;6324895;22;45364;-93
2022/05/19 04:08:22;;;;;;;;;5.60;5.60;;;;;24.36;54.64;101914.59;6329427;22;45017;-92
2022/05/19 04:11:17;;;;;;;;;4.60;4.60;;;;;24.96;55.00;102019.41;6352811;22;45422;-93
2022/05/19 04:13:48;;;;;;;;;5.00;5.00;;;;;24.94;54.96;102010.59;6336164;22;46787;-93
2022/05/19 04:16:49;;;;;;;;;;;;;;;;;;;;;
2022/05/19 04:19:26;;;;;;;;;6.20;4.60;;;;;24.55;55.39;101961.41;6367155;22;67976;-94
2022/05/19 04:22:01;;;;;;;;;3.80;3.80;;;;;24.22;55.24;101904.34;6335183;22;45400;-93
2022/05/19 04:24:42;;;;;;;;;6.60;4.60;;;;;24.40;55.45;101944.94;6309248;22;47742;-93
2022/05/19 04:27:14;;;;;;;;;4.80;4.80;;;;;24.18;55.28;101911.13;6339227;22;45488;-93
2022/05/19 04:29:43;;;;;;;;;5.60;5.40;;;;;24.34;55.30;101941.03;6335168;22;45378;-93
2022/05/19 04:32:08;;;;;;;;;4.80;4.40;;;;;24.46;55.55;101970.53;6330659;22;45336;-92
2022/05/19 04:34:34;;;;;;;;;6.00;5.25;;;;;24.20;55.83;101928.06;6329932;22;46871;-93
2022/05/19 04:37:23;;;;;;;;;7.00;5.50;;;;;24.81;55.08;102028.22;6333816;22;45479;-94
2022/05/19 04:40:00;;;;;;;;;5.00;5.00;;;;;24.82;55.56;102032.66;6363379;22;45537;-93
2022/05/19 04:42:33;;;;;;;;;7.20;6.40;;;;;24.33;55.47;101965.56;6335270;22;45388;-93
2022/05/19 04:45:06;;;;;;;;;6.00;4.60;;;;;24.35;55.43;101959.00;6308159;22;47613;-93
2022/05/19 04:47:32;;;;;;;;;6.20;5.00;;;;;24.09;55.25;101927.38;6317686;22;45287;-93
2022/05/19 04:50:00;;;;;;;;;7.00;6.00;;;;;24.15;55.15;101931.28;6315463;22;45269;-93
2022/05/19 04:52:26;;;;;;;;;6.00;6.00;;;;;24.09;55.77;101931.94;6289466;22;45309;-93
2022/05/19 04:54:57;;;;;;;;;7.25;5.75;;;;;24.63;55.48;102019.38;6287999;22;46679;-93
2022/05/19 04:57:22;;;;;;;;;7.20;7.00;;;;;24.27;55.69;101956.22;6289082;22;45227;-92
2022/05/19 04:59:51;;;;;;;;;7.00;6.00;;;;;24.74;55.55;102032.63;6289637;22;45270;-92
2022/05/19 05:02:16;;;;;;;;;6.20;5.20;;;;;24.07;55.51;101926.69;6289438;22;45457;-92
2022/05/19 05:05:19;;;;;;;;;4.00;4.00;;;;;24.72;55.57;102029.25;6289324;22;46849;-92
2022/05/19 05:07:45;;;;;;;;;5.00;5.00;;;;;24.30;55.42;101963.22;6320012;22;45742;-95
2022/05/19 05:10:16;;;;;;;;;4.25;4.00;;;;;24.41;55.07;101997.31;6329689;22;45285;-95
2022/05/19 05:12:41;;;;;;;;;5.20;4.00;;;;;24.20;55.32;101960.59;6288936;22;45598;-94
2022/05/19 05:15:20;;;;;;;;;4.50;3.25;;;;;24.25;55.52;101964.53;6289409;22;47010;-94
2022/05/19 05:18:31;;;;;;;;;3.00;3.00;;;;;24.68;55.22;102038.72;6265994;22;45374;-94
2022/05/19 05:20:57;;;;;;;;;4.40;3.60;;;;;24.53;55.69;102020.38;6155766;23;45338;-95
2022/05/19 05:23:22;;;;;;;;;6.25;5.75;;;;;24.34;55.52;102000.69;6128581;23;45338;-86
2022/05/19 05:25:47;;;;;;;;;4.00;3.50;;;;;24.16;55.10;101982.63;6150761;23;48567;-85
2022/05/19 05:28:13;;;;;;;;;5.75;4.25;;;;;24.27;54.93;101999.59;6176538;23;45411;-86
2022/05/19 05:30:38;;;;;;;;;3.00;3.00;;;;;24.27;54.81;101999.59;6153675;23;45515;-86
2022/05/19 05:33:08;;;;;;;;;4.00;4.00;;;;;23.99;54.52;101965.44;6175999;23;45328;-86
2022/05/19 05:35:34;;;;;;;;;5.00;5.00;;;;;24.35;54.98;102018.66;6100916;23;48295;-86
2022/05/19 05:37:59;;;;;;;;;4.75;4.00;;;;;24.48;54.48;102044.44;6125867;23;45246;-85
2022/05/19 05:40:26;;;;;;;;;6.75;4.50;;;;;24.66;54.23;102071.44;6153430;23;45524;-86
2022/05/19 05:42:51;;;;;;;;;5.20;3.00;;;;;24.52;54.21;102040.41;6127568;23;45338;-86
2022/05/19 05:45:17;;;;;;;;;3.75;3.00;;;;;24.01;54.00;101976.97;6125091;23;47559;-86
2022/05/19 05:47:42;;;;;;;;;3.25;3.00;;;;;24.10;54.33;102002.25;6128829;22;45656;-86
2022/05/19 05:50:08;;;;;;;;;3.00;3.00;;;;;24.47;54.17;102059.84;6207814;22;45685;-86
2022/05/19 05:52:33;;;;;;;;;5.00;4.00;;;;;24.29;54.06;102032.88;6131407;22;45428;-86
2022/05/19 05:55:00;;;;;;;;;7.00;3.00;;;;;24.09;54.32;102005.13;6157456;22;47007;-85
2022/05/19 05:57:27;;;;;;;;;4.40;2.20;;;;;24.51;53.81;102063.09;6200062;22;45310;-84
2022/05/19 05:59:52;;;;;;;;;3.00;2.60;;;;;24.05;53.60;101986.47;6365615;22;45275;-85
2022/05/19 06:02:18;;;;;;;;;3.00;3.00;;;;;24.19;53.61;102007.69;6338082;22;45948;-85
2022/05/19 06:04:43;;;;;;;;;6.25;4.00;;;;;24.18;54.04;102033.13;6366724;22;53704;-86
2022/05/19 06:07:10;;;;;;;;;3.25;3.25;;;;;24.43;53.78;102073.91;6310944;22;45528;-86
2022/05/19 06:09:37;;;;;;;;;4.80;3.00;;;;;24.40;54.12;102069.66;6311789;22;45400;-86
2022/05/19 06:12:04;;;;;;;;;4.60;3.00;;;;;24.08;54.41;102028.66;6313071;22;45705;-85
2022/05/19 06:14:29;;;;;;;;;3.40;2.00;;;;;24.22;53.64;102045.31;6285619;22;48237;-85
2022/05/19 06:16:55;;;;;;;;;2.50;2.50;;;;;24.25;53.55;102055.84;6337737;22;45311;-85
2022/05/19 06:19:21;;;;;;;;;4.25;3.00;;;;;24.13;53.82;102039.88;6312037;22;45267;-85
2022/05/19 06:21:47;;;;;;;;;2.00;2.00;;;;;24.66;53.69;102122.16;6313500;22;45412;-85
2022/05/19 06:24:12;;;;;;;;;3.25;3.25;;;;;23.96;53.96;102008.28;6311454;22;47284;-85
2022/05/19 06:26:39;;;;;;;;;3.75;3.75;;;;;24.08;53.47;102028.66;6311487;22;45613;-85
2022/05/19 06:29:06;;;;;;;;;2.40;2.00;;;;;24.66;53.43;102127.56;6340048;22;45349;-85
2022/05/19 06:31:31;;;;;;;;;3.00;3.00;;;;;24.20;53.41;102053.63;6312689;22;45286;-85
2022/05/19 06:33:58;;;;;;;;;3.25;2.25;;;;;24.55;53.73;102107.88;6312808;22;45714;-85
2022/05/19 06:36:24;;;;;;;;;2.40;2.40;;;;;23.83;53.49;101996.03;6311459;22;45548;-85
2022/05/19 06:38:49;;;;;;;;;4.50;3.25;;;;;24.37;53.47;102086.25;6311956;22;45449;-86
2022/05/19 06:43:58;;;;;;;;;4.40;4.40;;;;;24.56;53.20;102122.25;6365851;22;45288;-84
2022/05/19 06:46:24;;;;;;;;;3.00;3.00;;;;;24.62;53.19;102127.03;6312689;22;45538;-86
2022/05/19 06:48:54;;;;;;;;;5.25;4.00;;;;;24.58;52.88;102121.09;6311934;22;45758;-86
2022/05/19 06:51:19;;;;;;;;;5.00;4.20;;;;;24.46;52.81;102100.72;6285121;22;45464;-86
2022/05/19 06:53:48;;;;;;;;;4.50;3.00;;;;;24.03;53.00;102031.03;6311210;22;46354;-86
2022/05/19 06:56:13;;;;;;;;;2.80;2.80;;;;;24.19;52.86;102061.91;6285060;22;45685;-86
2022/05/19 06:58:39;;;;;;;;;6.75;4.75;;;;;24.28;53.13;102071.81;6313722;22;45747;-86
2022/05/19 07:01:04;;;;;;;;;3.00;3.00;;;;;24.30;53.26;102094.19;6366011;22;45402;-86
2022/05/19 07:03:30;;;;;;;;;4.00;3.50;;;;;24.28;53.39;102079.94;6285616;22;47205;-86
2022/05/19 07:05:55;;;;;;;;;2.75;2.75;;;;;24.56;53.72;102125.84;6311984;22;45348;-86
2022/05/19 07:08:21;;;;;;;;;4.25;4.25;;;;;24.04;53.57;102054.38;6366638;22;45262;-86
2022/05/19 07:10:46;;;;;;;;;2.75;2.75;;;;;24.27;53.57;102080.94;6311652;22;45412;-86
2022/05/19 07:13:12;;;;;;;;;5.00;4.00;;;;;24.32;53.53;102094.91;6308643;22;47046;-87
2022/05/19 07:15:37;;;;;;;;;8.25;5.00;;;;;23.94;53.23;102032.84;6311309;22;45397;-86
2022/05/19 07:18:03;;;;;;;;;4.50;4.50;;;;;24.55;53.45;102148.56;6312714;22;45410;-86
2022/05/19 07:20:44;;;;;;;;;4.00;4.00;;;;;24.28;53.41;102115.19;6338269;22;45469;-86
2022/05/19 07:23:12;;;;;;;;;3.60;3.40;;;;;24.43;53.62;102131.72;6313777;22;47613;-84
2022/05/19 07:25:38;;;;;;;;;3.80;3.80;;;;;24.34;53.43;102111.84;6336318;22;45343;-86
2022/05/19 07:28:04;;;;;;;;;2.60;2.60;;;;;24.25;53.54;102101.94;6311920;22;45458;-87
2022/05/19 07:30:29;;;;;;;;;5.25;3.00;;;;;24.49;53.37;102138.34;6366456;22;45314;-86
2022/05/19 07:32:55;;;;;;;;;3.50;3.50;;;;;24.30;53.20;102123.19;6337356;22;45960;-86
2022/05/19 07:35:20;;;;;;;;;2.25;2.25;;;;;24.28;53.33;102109.78;6310249;22;45555;-85
2022/05/19 07:37:46;;;;;;;;;3.75;3.00;;;;;24.03;53.51;102086.09;6311889;22;45289;-86
2022/05/19 07:40:12;;;;;;;;;2.75;2.75;;;;;24.45;53.73;102143.25;6309013;22;45533;-86
2022/05/19 07:42:38;;;;;;;;;5.00;4.00;;;;;24.26;53.67;102122.63;6285829;22;47511;-86
2022/05/19 07:45:05;;;;;;;;;3.50;2.25;;;;;24.44;53.85;102146.13;6310341;22;45811;-86
2022/05/19 07:47:31;;;;;;;;;5.40;4.00;;;;;24.46;53.95;102157.66;6341966;22;45262;-85
2022/05/19 07:49:56;;;;;;;;;6.75;6.50;;;;;24.55;53.68;102164.84;6312640;22;45354;-85
2022/05/19 07:52:22;;;;;;;;;3.50;3.00;;;;;24.47;53.74;102156.63;6311903;22;46118;-86
2022/05/19 07:54:48;;;;;;;;;4.40;4.00;;;;;24.52;53.68;102158.88;6368287;22;45374;-85
2022/05/19 07:57:13;;;;;;;;;3.00;3.00;;;;;24.25;53.88;102120.91;6340407;22;45678;-86
2022/05/19 07:59:39;;;;;;;;;4.25;4.00;;;;;24.00;53.88;102090.97;6339525;22;45360;-86
2022/05/19 08:02:05;;;;;;;;;3.00;3.00;;;;;24.49;53.88;102165.47;6313223;22;45801;-85
2022/05/19 08:04:30;;;;;;;;;6.00;5.20;;;;;24.32;53.79;102137.44;6286844;22;45749;-86
2022/05/19 08:06:56;;;;;;;;;4.00;4.00;;;;;24.22;53.53;102122.09;6312774;22;45372;-85
2022/05/19 08:12:06;;;;;;;;;4.00;4.00;;;;;24.34;53.91;102130.84;6343957;22;45445;-86
2022/05/19 08:17:17;;;;;;;;;3.40;3.40;;;;;24.59;53.82;102166.19;6322259;22;45289;-85
2022/05/19 08:19:42;;;;;;;;;4.80;4.00;;;;;24.50;53.92;102150.88;6340708;22;45390;-85
2022/05/19 08:22:08;;;;;;;;;4.75;4.00;;;;;24.55;53.78;102159.41;6313493;22;45394;-86
2022/05/19 08:24:34;;;;;;;;;4.25;4.25;;;;;24.58;53.93;102156.34;6368937;22;45468;-85
2022/05/19 08:27:00;;;;;;;;;3.00;3.00;;;;;24.51;53.96;102158.03;6315252;22;45380;-86
2022/05/19 08:29:26;;;;;;;;;7.00;6.00;;;;;24.41;53.92;102131.03;6318266;22;45409;-86
2022/05/19 08:31:52;;;;;;;;;5.80;5.80;;;;;24.29;53.66;102113.34;6322874;22;46293;-86
2022/05/19 08:34:17;;;;;;;;;4.50;4.50;;;;;24.47;54.30;102140.34;6319364;22;45327;-87
2022/05/19 08:36:46;;;;;;;;;6.50;5.50;;;;;24.59;54.21;102158.06;6313277;22;45378;-87
2022/05/19 08:39:12;;;;;;;;;6.20;6.20;;;;;24.23;54.25;102101.25;6314821;22;45264;-87
2022/05/19 08:41:45;;;;;;;;;7.20;6.00;;;;;24.33;54.71;102107.44;6313105;22;46533;-86
2022/05/19 08:44:16;;;;;;;;;5.80;5.00;;;;;24.73;54.75;102174.72;6341102;22;45346;-87
2022/05/19 08:46:45;;;;;;;;;4.20;4.20;;;;;24.14;54.86;102090.38;6368304;22;45426;-87
2022/05/19 08:49:42;;;;;;;;;3.60;3.60;;;;;24.75;54.43;102172.72;6313473;22;45273;-87
2022/05/19 08:52:14;;;;;;;;;4.80;4.80;;;;;24.10;54.86;102069.16;6311958;22;48398;-86
2022/05/19 08:54:42;;;;;;;;;7.00;4.40;;;;;24.24;54.27;102078.56;6307231;22;45383;-87
2022/05/19 08:57:16;;;;;;;;;5.00;5.00;;;;;24.59;54.67;102138.22;6311095;22;45294;-87
2022/05/19 09:00:10;;;;;;;;;5.60;5.60;;;;;24.81;54.71;102163.91;6366572;22;45741;-88
2022/05/19 09:02:54;;;;;;;;;7.40;4.20;;;;;24.84;54.89;102164.59;6367431;22;46294;-87
2022/05/19 09:05:28;;;;;;;;;6.00;4.00;;;;;24.85;54.80;102163.56;6367247;22;45410;-88
2022/05/19 09:08:15;;;;;;;;;7.40;4.80;;;;;24.50;54.80;102118.34;6368013;22;45342;-87
2022/05/19 09:11:15;;;;;;;;;6.00;6.00;;;;;24.89;54.44;102165.81;6316874;22;45392;-87
2022/05/19 09:14:03;;;;;;;;;5.80;5.80;;;;;24.91;54.65;102169.19;6339056;22;47086;-87
2022/05/19 09:16:31;;;;;;;;;4.80;3.60;;;;;24.83;54.38;102155.63;6339838;22;45327;-87
2022/05/19 09:19:06;;;;;;;;;4.60;4.00;;;;;24.84;54.48;102151.03;6338198;22;45338;-87
2022/05/19 09:21:33;;;;;;;;;8.80;6.00;;;;;24.43;54.50;102079.34;6338873;22;45348;-87
2022/05/19 09:23:59;;;;;;;;;5.80;5.40;;;;;24.56;54.31;102089.72;6313479;22;45984;-87
2022/05/19 09:26:53;;;;;;;;;5.50;5.50;;;;;24.99;54.51;102157.50;6313003;22;45290;-89
2022/05/19 09:29:30;;;;;;;;;8.40;6.00;;;;;24.81;54.61;102119.66;6338332;22;45437;-88
2022/05/19 09:32:16;;;;;;;;;5.60;5.60;;;;;24.56;54.56;102079.72;6287127;22;45444;-87
2022/05/19 09:34:47;;;;;;;;;7.00;6.00;;;;;25.04;53.98;102151.63;6314816;22;47710;-87
2022/05/19 09:37:17;;;;;;;;;6.60;5.00;;;;;25.08;53.89;102160.28;6287639;22;45243;-88
2022/05/19 09:39:45;;;;;;;;;6.60;6.20;;;;;24.65;53.87;102083.31;6344905;22;45417;-88
2022/05/19 09:42:17;;;;;;;;;7.00;7.00;;;;;24.58;53.76;102068.72;6290738;22;45326;-88
2022/05/19 09:44:45;;;;;;;;;5.60;5.60;;;;;24.68;53.87;102101.13;6285365;22;47907;-88
2022/05/19 09:47:31;;;;;;;;;9.40;6.40;;;;;25.04;53.67;102152.47;6313091;22;45506;-88
2022/05/19 09:50:10;;;;;;;;;6.40;6.40;;;;;24.68;53.38;102091.13;6312218;22;45343;-88
2022/05/19 09:52:38;;;;;;;;;6.00;5.60;;;;;24.89;53.89;102121.53;6313893;22;45399;-88
2022/05/19 09:55:05;;;;;;;;;9.40;7.60;;;;;25.03;54.05;102150.78;6312392;22;47157;-88
2022/05/19 09:57:37;;;;;;;;;10.80;8.20;;;;;24.78;53.79;102101.00;6286927;22;45334;-88
2022/05/19 10:00:07;;;;;;;;;10.80;6.80;;;;;24.60;53.52;102059.41;6312965;22;45262;-88
2022/05/19 10:02:36;;;;;;;;;6.60;6.60;;;;;24.89;54.06;102099.81;6312527;22;45391;-88
2022/05/19 10:05:16;;;;;;;;;8.00;7.40;;;;;24.67;53.91;102065.00;6312691;22;45462;-86
2022/05/19 10:07:46;;;;;;;;;7.40;7.40;;;;;24.62;53.90;102045.66;6284076;22;45623;-87
2022/05/19 10:10:26;;;;;;;;;7.40;7.40;;;;;25.10;54.01;102128.41;6285526;22;45355;-87
2022/05/19 10:12:56;;;;;;;;;8.80;6.40;;;;;25.34;53.74;102145.72;6313104;22;45362;-87
2022/05/19 10:15:22;;;;;;;;;9.20;8.60;;;;;24.70;54.08;102042.09;6284052;22;46931;-87
2022/05/19 10:17:56;;;;;;;;;8.00;7.75;;;;;25.02;53.94;102094.78;6310831;22;45318;-87
2022/05/19 10:20:29;;;;;;;;;9.00;9.00;;;;;24.91;53.69;102067.94;6329515;22;45764;-87
2022/05/19 10:23:11;;;;;;;;;9.20;9.00;;;;;25.22;53.31;102113.47;6305609;22;45768;-87
2022/05/19 10:26:04;;;;;;;;;7.80;7.80;;;;;25.40;53.41;102136.91;6304928;22;47122;-87
2022/05/19 10:32:06;;;;;;;;;8.40;8.40;;;;;25.34;53.36;102113.13;6367729;22;45389;-88
2022/05/19 10:34:49;;;;;;;;;9.60;8.00;;;;;25.46;52.90;102130.81;6182259;22;45272;-87
2022/05/19 10:37:26;;;;;;;;;12.00;9.60;;;;;25.07;52.92;102066.31;6208627;22;45447;-87
2022/05/19 10:40:23;;;;;;;;;12.80;9.80;;;;;25.51;52.76;102129.44;6180513;22;45311;-87
2022/05/19 10:43:07;;;;;;;;;10.60;8.40;;;;;25.53;52.62;102127.41;6180518;22;45734;-86
2022/05/19 10:45:34;;;;;;;;;9.60;9.60;;;;;25.50;53.07;102120.47;6176806;22;45280;-87
2022/05/19 10:48:30;;;;;;;;;12.00;10.80;;;;;25.56;52.97;102121.66;6157084;22;47479;-88
2022/05/19 10:51:10;;;;;;;;;12.60;9.40;;;;;25.59;52.74;102126.72;6179085;22;45625;-88
2022/05/19 10:53:41;;;;;;;;;9.20;9.20;;;;;25.51;52.47;102113.13;6177882;22;45400;-88
2022/05/19 10:56:28;;;;;;;;;12.00;9.60;;;;;25.62;52.53;102126.38;6171340;22;45885;-89
2022/05/19 10:59:03;;;;;;;;;11.20;9.20;;;;;25.62;52.67;102114.69;6196645;22;46345;-88
2022/05/19 11:01:42;;;;;;;;;12.80;11.80;;;;;25.65;52.61;102120.59;6172358;22;45845;-88
2022/05/19 11:04:45;;;;;;;;;11.40;9.20;;;;;25.68;52.28;102114.84;6146887;22;45593;-88
2022/05/19 11:07:30;;;;;;;;;13.00;11.40;;;;;25.71;52.59;102116.34;6171375;22;45619;-89
2022/05/19 11:10:05;;;;;;;;;8.20;8.20;;;;;25.59;52.71;102088.69;6172921;22;45516;-88
2022/05/19 11:12:49;;;;;;;;;12.00;12.00;;;;;25.75;52.18;102108.72;6301109;22;45726;-88
2022/05/19 11:15:38;;;;;;;;;12.80;10.40;;;;;25.77;52.54;102112.13;6330903;22;45774;-89
2022/05/19 11:18:12;;;;;;;;;10.80;8.00;;;;;25.27;52.58;102036.09;6332366;22;45646;-89
2022/05/19 11:20:48;;;;;;;;;7.20;6.00;;;;;25.46;52.44;102062.91;6331182;22;46044;-89
2022/05/19 11:26:48;;;;;;;;;8.00;8.00;;;;;25.38;52.37;102040.34;6313082;22;45318;-88
2022/05/19 11:29:23;;;;;;;;;10.20;9.00;;;;;25.87;52.56;102114.69;6281937;22;45333;-88
2022/05/19 11:32:01;;;;;;;;;10.00;10.00;;;;;25.88;52.29;102108.19;6324762;22;48101;-89
2022/05/19 11:34:30;;;;;;;;;9.20;9.20;;;;;25.89;52.47;102110.75;6329529;22;45415;-89
2022/05/19 11:36:56;;;;;;;;;11.20;10.00;;;;;25.93;52.13;102107.72;6326001;22;45335;-88
2022/05/19 11:39:27;;;;;;;;;6.50;6.50;;;;;25.78;52.11;102089.38;6328293;22;45440;-88
2022/05/19 11:41:53;;;;;;;;;11.20;10.20;;;;;25.79;51.94;102083.75;6302101;22;47894;-88
2022/05/19 11:44:28;;;;;;;;;13.00;11.75;;;;;25.97;52.10;102101.72;6301605;22;45657;-88
2022/05/19 11:47:00;;;;;;;;;14.20;13.60;;;;;25.60;52.09;102046.91;6329245;22;45619;-89
2022/05/19 11:55:19;;;;;;;;;15.60;14.20;;;;;25.95;52.19;102081.19;6352834;22;45299;-90
2022/05/19 11:57:59;;;;;;;;;12.20;11.40;;;;;25.58;51.87;102021.81;6276946;22;45379;-89
2022/05/19 12:00:28;;;;;;;;;13.00;10.80;;;;;26.07;52.22;102087.97;6306211;22;45334;-89
2022/05/19 12:03:05;;;;;;;;;11.80;11.40;;;;;25.68;52.19;102024.31;6302981;22;47330;-89
2022/05/19 12:05:31;;;;;;;;;14.40;12.40;;;;;25.55;51.60;102000.41;6303815;22;45443;-88
2022/05/19 12:07:59;;;;;;;;;11.60;11.40;;;;;25.64;51.55;102009.41;6301162;22;45518;-88
2022/05/19 12:10:36;;;;;;;;;12.40;11.20;;;;;25.83;51.62;102039.94;6300478;22;45400;-91
2022/05/19 12:13:03;;;;;;;;;11.00;10.20;;;;;25.83;51.51;102018.19;6297427;22;47827;-89
2022/05/19 12:15:38;;;;;;;;;11.40;10.80;;;;;25.68;51.88;101989.00;6309285;22;45537;-89
2022/05/19 12:18:35;;;;;;;;;12.40;11.80;;;;;25.73;51.84;102002.06;6307448;22;45799;-90
2022/05/19 12:21:01;;;;;;;;;15.20;12.00;;;;;26.23;51.39;102062.56;6300579;22;45395;-90
2022/05/19 12:23:39;;;;;;;;;11.50;9.75;;;;;25.74;51.86;101987.44;6363695;22;45749;-90
2022/05/19 12:26:07;;;;;;;;;14.40;13.20;;;;;25.84;52.01;102015.31;6305854;22;45423;-89
2022/05/19 12:28:44;;;;;;;;;12.20;10.40;;;;;26.28;51.57;102075.63;6298814;22;45764;-90
2022/05/19 12:34:05;;;;;;;;;14.20;11.40;;;;;25.62;51.04;101963.38;6307231;22;46287;-90
2022/05/19 12:36:30;;;;;;;;;14.75;13.00;;;;;26.33;51.39;102065.06;6280431;22;45519;-89
2022/05/19 12:39:17;;;;;;;;;12.50;11.00;;;;;26.35;51.13;102064.91;6333879;22;45416;-89
2022/05/19 12:41:49;;;;;;;;;12.00;12.00;;;;;26.38;51.28;102066.41;6327989;22;45757;-89
2022/05/19 12:44:38;;;;;;;;;11.40;11.40;;;;;26.39;51.62;102065.41;6358948;22;46072;-89
2022/05/19 12:47:03;;;;;;;;;10.80;10.80;;;;;26.41;51.14;102068.78;6328889;22;45290;-89
2022/05/19 12:49:31;;;;;;;;;11.00;11.00;;;;;25.80;51.34;101965.03;6364718;22;45284;-89
2022/05/19 12:51:59;;;;;;;;;11.40;11.00;;;;;26.25;51.16;102032.47;6313382;22;45404;-89
2022/05/19 12:54:26;;;;;;;;;11.60;11.00;;;;;25.74;51.06;101949.41;6309907;22;48011;-89
2022/05/19 12:56:55;;;;;;;;;14.60;11.20;;;;;26.35;51.24;102049.44;6311399;22;45855;-89
2022/05/19 12:59:46;;;;;;;;;13.00;13.00;;;;;26.40;51.12;102045.31;6310231;22;45321;-89
2022/05/19 13:02:23;;;;;;;;;13.80;10.80;;;;;25.91;51.26;101964.66;6338136;22;45525;-87
2022/05/19 13:05:00;;;;;;;;;13.20;12.00;;;;;26.12;50.92;102006.72;6312518;22;46360;-87
2022/05/19 13:07:43;;;;;;;;;13.40;13.40;;;;;26.52;50.93;102060.25;6288673;22;45335;-89
2022/05/19 13:10:33;;;;;;;;;12.80;11.80;;;;;26.56;50.95;102055.31;6285797;22;45348;-90
2022/05/19 13:13:06;;;;;;;;;11.60;11.00;;;;;26.48;51.15;102036.31;6335361;22;45473;-89
2022/05/19 13:15:33;;;;;;;;;15.00;12.00;;;;;26.02;50.90;101957.13;6309101;22;47542;-89
2022/05/19 13:18:04;;;;;;;;;13.20;11.20;;;;;26.53;50.72;102033.91;6277964;22;45728;-88
2022/05/19 13:20:38;;;;;;;;;14.80;14.00;;;;;26.59;51.14;102040.50;6308585;22;45389;-90
2022/05/19 13:23:20;;;;;;;;;10.40;10.40;;;;;26.20;50.65;101975.06;6310631;22;45333;-89
2022/05/19 13:25:48;;;;;;;;;12.60;11.20;;;;;26.57;50.99;102025.19;6305575;22;45550;-89
2022/05/19 13:31:02;;;;;;;;;12.00;12.00;;;;;26.41;50.87;101990.75;6307403;22;45561;-89
2022/05/19 13:33:37;;;;;;;;;14.25;12.00;;;;;26.49;50.70;101995.31;6302714;22;45729;-89
2022/05/19 13:36:05;;;;;;;;;11.00;10.00;;;;;26.27;50.61;101951.56;6307256;22;45502;-89
2022/05/19 13:38:34;;;;;;;;;14.80;13.00;;;;;26.17;50.50;101942.78;6277612;22;45871;-90
2022/05/19 13:40:59;;;;;;;;;14.40;12.40;;;;;26.15;50.38;101936.69;6304200;22;45318;-89
2022/05/19 13:43:40;;;;;;;;;12.75;12.75;;;;;26.55;50.70;102000.03;6285590;22;45305;-89
2022/05/19 13:46:16;;;;;;;;;12.60;12.60;;;;;26.47;50.56;101981.06;6303470;22;48308;-89
2022/05/19 13:48:45;;;;;;;;;13.20;12.00;;;;;26.79;50.77;102017.22;6274462;22;45559;-88